createdAt,value
2017-09-27T00:00:48.357Z,0.00
2017-09-27T00:01:48.545Z,0.00
2017-09-27T00:02:48.380Z,0.00
2017-09-27T00:03:48.556Z,0.00
2017-09-27T00:04:48.405Z,0.00
2017-09-27T00:05:48.569Z,0.00
2017-09-27T00:06:48.424Z,0.00
2017-09-27T00:07:48.582Z,0.00
2017-09-27T00:08:48.447Z,0.00
2017-09-27T00:09:48.598Z,0.00
2017-09-27T00:10:48.469Z,0.00
2017-09-27T00:11:48.613Z,0.00
2017-09-27T00:12:48.495Z,0.00
2017-09-27T00:13:48.626Z,0.00
2017-09-27T00:14:48.515Z,0.00
2017-09-27T00:15:48.637Z,0.00
2017-09-27T00:16:48.540Z,0.00
2017-09-27T00:17:48.657Z,0.00
2017-09-27T00:18:48.561Z,0.00
2017-09-27T00:19:48.666Z,0.00
2017-09-27T00:20:48.607Z,0.00
2017-09-27T00:21:48.687Z,0.00
2017-09-27T00:22:48.610Z,0.00
2017-09-27T00:23:48.793Z,0.00
2017-09-27T00:24:48.626Z,0.00
2017-09-27T00:25:48.636Z,0.00
2017-09-27T00:26:48.650Z,0.00
2017-09-27T00:27:48.665Z,0.00
2017-09-27T00:28:48.676Z,0.00
2017-09-27T00:29:48.682Z,0.00
2017-09-27T00:30:49.865Z,0.00
2017-09-27T00:31:48.704Z,0.00
2017-09-27T00:32:48.858Z,0.00
2017-09-27T00:33:48.728Z,0.00
2017-09-27T00:34:49.892Z,0.00
2017-09-27T00:35:48.751Z,0.00
2017-09-27T00:36:48.769Z,0.00
2017-09-27T00:37:48.770Z,0.00
2017-09-27T00:38:48.787Z,0.00
2017-09-27T00:39:48.804Z,0.00
2017-09-27T00:40:48.809Z,0.00
2017-09-27T00:41:48.814Z,0.00
2017-09-27T00:42:48.833Z,0.00
2017-09-27T00:43:48.840Z,0.00
2017-09-27T00:44:48.853Z,0.00
2017-09-27T00:45:48.861Z,0.00
2017-09-27T00:46:48.872Z,0.00
2017-09-27T00:47:48.882Z,0.00
2017-09-27T00:48:48.897Z,0.00
2017-09-27T00:49:48.905Z,0.00
2017-09-27T00:50:48.920Z,0.00
2017-09-27T00:51:48.931Z,0.00
2017-09-27T00:52:48.939Z,0.00
2017-09-27T00:53:48.954Z,0.00
2017-09-27T00:54:48.963Z,0.00
2017-09-27T00:55:48.976Z,0.00
2017-09-27T00:56:48.987Z,0.00
2017-09-27T00:57:49.001Z,0.00
2017-09-27T00:58:49.007Z,0.00
2017-09-27T00:59:49.017Z,0.00
2017-09-27T01:00:49.030Z,0.00
2017-09-27T01:01:49.037Z,0.00
2017-09-27T01:02:49.053Z,0.00
2017-09-27T01:03:49.068Z,0.00
2017-09-27T01:04:49.074Z,0.00
2017-09-27T01:05:49.083Z,0.00
2017-09-27T01:06:49.095Z,0.00
2017-09-27T01:07:49.106Z,0.00
2017-09-27T01:08:49.117Z,0.00
2017-09-27T01:09:49.127Z,0.00
2017-09-27T01:10:49.144Z,0.00
2017-09-27T01:11:49.151Z,0.00
2017-09-27T01:12:49.166Z,0.00
2017-09-27T01:13:49.168Z,0.00
2017-09-27T01:14:49.182Z,0.00
2017-09-27T01:15:49.193Z,0.00
2017-09-27T01:16:49.360Z,0.00
2017-09-27T01:17:49.222Z,0.00
2017-09-27T01:18:49.371Z,0.00
2017-09-27T01:19:49.242Z,0.00
2017-09-27T01:20:49.394Z,0.00
2017-09-27T01:21:49.259Z,0.00
2017-09-27T01:22:49.397Z,0.00
2017-09-27T01:23:49.284Z,0.00
2017-09-27T01:24:50.437Z,0.00
2017-09-27T01:25:49.305Z,0.00
2017-09-27T01:26:49.433Z,0.00
2017-09-27T01:27:49.330Z,0.00
2017-09-27T01:28:50.466Z,0.00
2017-09-27T01:29:49.356Z,0.00
2017-09-27T01:30:49.560Z,0.00
2017-09-27T01:31:49.371Z,0.00
2017-09-27T01:32:49.573Z,0.00
2017-09-27T01:33:49.389Z,0.00
2017-09-27T01:34:49.586Z,0.00
2017-09-27T01:35:49.411Z,0.00
2017-09-27T01:36:49.600Z,0.00
2017-09-27T01:37:49.437Z,0.00
2017-09-27T01:38:49.616Z,0.00
2017-09-27T01:39:49.462Z,0.00
2017-09-27T01:40:49.626Z,0.00
2017-09-27T01:41:49.485Z,0.00
2017-09-27T01:42:49.641Z,0.00
2017-09-27T01:43:49.504Z,0.00
2017-09-27T01:44:49.654Z,0.00
2017-09-27T01:45:49.527Z,0.00
2017-09-27T01:46:49.666Z,0.00
2017-09-27T01:47:49.549Z,0.00
2017-09-27T01:48:49.681Z,0.00
2017-09-27T01:49:49.574Z,0.00
2017-09-27T01:50:49.695Z,0.00
2017-09-27T01:51:49.597Z,0.00
2017-09-27T01:52:49.809Z,0.00
2017-09-27T01:53:49.611Z,0.00
2017-09-27T01:54:49.821Z,0.00
2017-09-27T01:55:49.634Z,0.00
2017-09-27T01:56:49.837Z,0.00
2017-09-27T01:57:49.657Z,0.00
2017-09-27T01:58:49.849Z,0.00
2017-09-27T01:59:49.708Z,0.00
2017-09-27T02:00:49.863Z,0.00
2017-09-27T02:01:49.700Z,0.00
2017-09-27T02:02:49.876Z,0.00
2017-09-27T02:03:49.723Z,0.00
2017-09-27T02:04:49.889Z,0.00
2017-09-27T02:05:49.744Z,0.00
2017-09-27T02:06:49.902Z,0.00
2017-09-27T02:07:49.765Z,0.00
2017-09-27T02:08:49.915Z,0.00
2017-09-27T02:09:49.785Z,0.00
2017-09-27T02:10:49.930Z,0.00
2017-09-27T02:11:49.812Z,0.00
2017-09-27T02:12:49.943Z,0.00
2017-09-27T02:13:49.828Z,0.00
2017-09-27T02:14:50.058Z,0.00
2017-09-27T02:15:49.852Z,0.00
2017-09-27T02:16:50.078Z,0.00
2017-09-27T02:17:49.873Z,0.00
2017-09-27T02:18:49.986Z,0.00
2017-09-27T02:19:49.894Z,0.00
2017-09-27T02:20:50.000Z,0.00
2017-09-27T02:21:49.912Z,0.00
2017-09-27T02:22:50.011Z,0.00
2017-09-27T02:23:49.940Z,0.00
2017-09-27T02:24:50.026Z,0.00
2017-09-27T02:25:49.960Z,0.00
2017-09-27T02:26:50.043Z,0.00
2017-09-27T02:27:49.981Z,0.00
2017-09-27T02:28:50.054Z,0.00
2017-09-27T02:29:50.002Z,0.00
2017-09-27T02:30:50.068Z,0.00
2017-09-27T02:31:50.025Z,0.00
2017-09-27T02:32:50.084Z,0.00
2017-09-27T02:33:50.048Z,0.00
2017-09-27T02:34:50.098Z,0.00
2017-09-27T02:35:50.067Z,0.00
2017-09-27T02:36:54.812Z,0.00
2017-09-27T02:37:50.086Z,0.00
2017-09-27T02:38:50.217Z,0.00
2017-09-27T02:39:50.111Z,0.00
2017-09-27T02:40:51.152Z,0.00
2017-09-27T02:41:50.137Z,0.00
2017-09-27T02:42:50.245Z,0.00
2017-09-27T02:43:50.154Z,0.00
2017-09-27T02:44:50.258Z,0.00
2017-09-27T02:45:50.173Z,0.00
2017-09-27T02:46:50.271Z,0.00
2017-09-27T02:47:50.199Z,0.00
2017-09-27T02:48:50.284Z,0.00
2017-09-27T02:49:50.221Z,0.00
2017-09-27T02:50:50.299Z,0.00
2017-09-27T02:51:50.241Z,0.00
2017-09-27T02:52:50.311Z,0.00
2017-09-27T02:53:50.263Z,0.00
2017-09-27T02:54:50.326Z,0.00
2017-09-27T02:55:50.288Z,0.00
2017-09-27T02:56:50.342Z,0.00
2017-09-27T02:57:50.305Z,0.00
2017-09-27T02:58:50.359Z,0.00
2017-09-27T02:59:50.324Z,0.00
2017-09-27T03:00:50.371Z,0.00
2017-09-27T03:01:50.348Z,0.00
2017-09-27T03:02:50.483Z,0.00
2017-09-27T03:03:50.372Z,0.00
2017-09-27T03:04:50.500Z,0.00
2017-09-27T03:05:50.388Z,0.00
2017-09-27T03:06:50.515Z,0.00
2017-09-27T03:07:50.415Z,0.00
2017-09-27T03:08:50.523Z,0.00
2017-09-27T03:09:50.429Z,0.00
2017-09-27T03:10:50.543Z,0.00
2017-09-27T03:11:50.465Z,0.00
2017-09-27T03:12:50.556Z,0.00
2017-09-27T03:13:50.473Z,0.00
2017-09-27T03:14:50.563Z,0.00
2017-09-27T03:15:50.496Z,0.00
2017-09-27T03:16:50.581Z,0.00
2017-09-27T03:17:50.518Z,0.00
2017-09-27T03:18:50.590Z,0.00
2017-09-27T03:19:50.542Z,0.00
2017-09-27T03:20:50.601Z,0.00
2017-09-27T03:21:50.561Z,0.00
2017-09-27T03:22:50.622Z,0.00
2017-09-27T03:23:50.586Z,0.00
2017-09-27T03:24:50.635Z,0.00
2017-09-27T03:25:50.601Z,0.00
2017-09-27T03:26:50.749Z,0.00
2017-09-27T03:27:50.626Z,0.00
2017-09-27T03:28:50.766Z,0.00
2017-09-27T03:29:50.644Z,0.00
2017-09-27T03:30:50.771Z,0.00
2017-09-27T03:31:50.666Z,0.00
2017-09-27T03:32:50.790Z,0.00
2017-09-27T03:33:50.695Z,0.00
2017-09-27T03:34:50.803Z,0.00
2017-09-27T03:35:50.708Z,0.00
2017-09-27T03:36:50.819Z,0.00
2017-09-27T03:37:50.727Z,0.00
2017-09-27T03:38:50.830Z,0.00
2017-09-27T03:39:50.750Z,0.00
2017-09-27T03:40:50.840Z,0.00
2017-09-27T03:41:50.775Z,0.00
2017-09-27T03:42:50.860Z,0.00
2017-09-27T03:43:50.797Z,0.00
2017-09-27T03:44:50.869Z,0.00
2017-09-27T03:45:50.817Z,0.00
2017-09-27T03:46:50.882Z,0.00
2017-09-27T03:47:50.836Z,0.00
2017-09-27T03:48:50.897Z,0.00
2017-09-27T03:49:50.855Z,0.00
2017-09-27T03:50:51.014Z,0.00
2017-09-27T03:51:50.879Z,0.00
2017-09-27T03:52:51.027Z,0.00
2017-09-27T03:53:50.895Z,0.00
2017-09-27T03:54:51.043Z,0.00
2017-09-27T03:55:50.921Z,0.00
2017-09-27T03:56:51.056Z,0.00
2017-09-27T03:57:50.939Z,0.00
2017-09-27T03:58:51.069Z,0.00
2017-09-27T03:59:50.966Z,0.00
2017-09-27T04:00:51.082Z,0.00
2017-09-27T04:01:50.981Z,0.00
2017-09-27T04:02:51.095Z,0.00
2017-09-27T04:03:51.001Z,0.00
2017-09-27T04:04:51.108Z,0.00
2017-09-27T04:05:51.024Z,0.00
2017-09-27T04:06:51.121Z,0.00
2017-09-27T04:07:51.049Z,0.00
2017-09-27T04:08:51.137Z,0.00
2017-09-27T04:09:51.074Z,0.00
2017-09-27T04:10:51.150Z,0.00
2017-09-27T04:11:51.086Z,0.00
2017-09-27T04:12:51.162Z,0.00
2017-09-27T04:13:51.109Z,0.00
2017-09-27T04:14:51.178Z,0.00
2017-09-27T04:15:51.131Z,0.00
2017-09-27T04:16:51.292Z,0.00
2017-09-27T04:17:51.151Z,0.00
2017-09-27T04:18:51.302Z,0.00
2017-09-27T04:19:51.175Z,0.00
2017-09-27T04:20:51.317Z,0.00
2017-09-27T04:21:51.193Z,0.00
2017-09-27T04:22:51.330Z,0.00
2017-09-27T04:23:51.215Z,0.00
2017-09-27T04:24:51.343Z,0.00
2017-09-27T04:25:51.275Z,0.00
2017-09-27T04:26:51.356Z,0.00
2017-09-27T04:27:51.255Z,0.00
2017-09-27T04:28:51.371Z,0.00
2017-09-27T04:29:51.277Z,0.00
2017-09-27T04:30:51.387Z,0.00
2017-09-27T04:31:51.300Z,0.00
2017-09-27T04:32:51.399Z,0.00
2017-09-27T04:33:51.323Z,0.00
2017-09-27T04:34:51.416Z,0.00
2017-09-27T04:35:51.343Z,0.00
2017-09-27T04:36:51.426Z,0.00
2017-09-27T04:37:51.362Z,0.00
2017-09-27T04:38:51.440Z,0.00
2017-09-27T04:39:51.388Z,0.00
2017-09-27T04:40:51.559Z,0.00
2017-09-27T04:41:51.402Z,0.00
2017-09-27T04:42:51.576Z,0.00
2017-09-27T04:43:51.424Z,0.00
2017-09-27T04:44:51.588Z,0.00
2017-09-27T04:45:51.442Z,0.00
2017-09-27T04:46:51.553Z,0.00
2017-09-27T04:47:51.466Z,0.00
2017-09-27T04:49:02.419Z,0.00
2017-09-27T04:49:51.486Z,0.00
2017-09-27T04:50:52.605Z,0.00
2017-09-27T04:51:51.507Z,0.00
2017-09-27T04:52:52.616Z,0.00
2017-09-27T04:53:51.524Z,0.00
2017-09-27T04:54:51.609Z,0.00
2017-09-27T04:55:51.549Z,0.00
2017-09-27T04:56:51.620Z,0.00
2017-09-27T04:57:51.571Z,0.00
2017-09-27T04:58:51.631Z,0.00
2017-09-27T04:59:51.594Z,0.00
2017-09-27T05:00:51.646Z,0.00
2017-09-27T05:01:51.612Z,0.00
2017-09-27T05:02:52.686Z,0.00
2017-09-27T05:03:51.631Z,0.00
2017-09-27T05:04:51.675Z,0.00
2017-09-27T05:05:51.653Z,0.00
2017-09-27T05:06:51.689Z,0.00
2017-09-27T05:07:51.671Z,0.00
2017-09-27T05:08:51.802Z,0.00
2017-09-27T05:09:51.698Z,0.00
2017-09-27T05:10:51.819Z,4.00
2017-09-27T05:11:51.722Z,4.00
2017-09-27T05:12:51.834Z,4.00
2017-09-27T05:13:51.742Z,4.00
2017-09-27T05:14:51.847Z,4.00
2017-09-27T05:15:51.758Z,4.00
2017-09-27T05:16:51.861Z,4.00
2017-09-27T05:17:51.777Z,8.00
2017-09-27T05:18:51.789Z,8.00
2017-09-27T05:19:51.802Z,12.00
2017-09-27T05:20:51.806Z,12.00
2017-09-27T05:21:51.821Z,16.00
2017-09-27T05:22:51.827Z,20.00
2017-09-27T05:23:51.840Z,20.00
2017-09-27T05:24:51.852Z,24.00
2017-09-27T05:25:51.855Z,24.00
2017-09-27T05:26:51.868Z,24.00
2017-09-27T05:27:51.879Z,28.00
2017-09-27T05:28:51.894Z,32.00
2017-09-27T05:29:51.902Z,32.00
2017-09-27T05:30:51.913Z,36.00
2017-09-27T05:31:51.919Z,40.00
2017-09-27T05:32:51.933Z,44.00
2017-09-27T05:33:51.940Z,44.00
2017-09-27T05:34:51.953Z,48.00
2017-09-27T05:35:51.958Z,56.00
2017-09-27T05:36:51.975Z,56.00
2017-09-27T05:37:52.102Z,60.00
2017-09-27T05:38:51.991Z,64.00
2017-09-27T05:39:53.473Z,68.00
2017-09-27T05:40:52.024Z,72.00
2017-09-27T05:41:52.136Z,80.00
2017-09-27T05:42:52.032Z,80.00
2017-09-27T05:43:52.142Z,84.00
2017-09-27T05:44:52.056Z,88.00
2017-09-27T05:45:52.160Z,96.00
2017-09-27T05:46:52.077Z,96.00
2017-09-27T05:47:52.170Z,100.00
2017-09-27T05:48:52.096Z,108.00
2017-09-27T05:49:52.184Z,108.00
2017-09-27T05:50:52.115Z,112.00
2017-09-27T05:51:52.124Z,112.00
2017-09-27T05:52:52.136Z,112.00
2017-09-27T05:53:52.149Z,116.00
2017-09-27T05:54:52.157Z,116.00
2017-09-27T05:55:52.169Z,112.00
2017-09-27T05:56:52.180Z,116.00
2017-09-27T05:57:52.189Z,116.00
2017-09-27T05:58:52.243Z,120.00
2017-09-27T05:59:52.212Z,120.00
2017-09-27T06:00:52.216Z,124.00
2017-09-27T06:01:52.231Z,124.00
2017-09-27T06:02:52.256Z,128.00
2017-09-27T06:03:52.248Z,128.00
2017-09-27T06:04:52.259Z,132.00
2017-09-27T06:05:52.269Z,136.00
2017-09-27T06:06:52.282Z,140.00
2017-09-27T06:07:52.289Z,148.00
2017-09-27T06:08:52.302Z,156.00
2017-09-27T06:09:52.310Z,160.00
2017-09-27T06:10:52.324Z,164.00
2017-09-27T06:11:52.331Z,172.00
2017-09-27T06:12:52.337Z,176.00
2017-09-27T06:13:52.353Z,180.00
2017-09-27T06:14:52.361Z,184.00
2017-09-27T06:15:52.368Z,188.00
2017-09-27T06:16:52.390Z,192.00
2017-09-27T06:17:52.395Z,196.00
2017-09-27T06:18:52.401Z,204.00
2017-09-27T06:19:52.409Z,216.00
2017-09-27T06:20:52.419Z,224.00
2017-09-27T06:21:52.431Z,232.00
2017-09-27T06:22:52.438Z,240.00
2017-09-27T06:23:53.325Z,256.00
2017-09-27T06:24:52.538Z,268.00
2017-09-27T06:25:52.472Z,280.00
2017-09-27T06:26:52.482Z,292.00
2017-09-27T06:27:52.492Z,312.00
2017-09-27T06:28:52.501Z,328.00
2017-09-27T06:29:52.513Z,348.00
2017-09-27T06:30:52.524Z,372.00
2017-09-27T06:31:52.675Z,400.00
2017-09-27T06:32:52.547Z,440.00
2017-09-27T06:33:52.689Z,472.00
2017-09-27T06:34:52.563Z,500.00
2017-09-27T06:35:53.728Z,524.00
2017-09-27T06:36:52.584Z,556.00
2017-09-27T06:37:52.591Z,584.00
2017-09-27T06:38:52.599Z,608.00
2017-09-27T06:39:52.612Z,628.00
2017-09-27T06:40:52.626Z,652.00
2017-09-27T06:41:52.745Z,672.00
2017-09-27T06:42:52.650Z,692.00
2017-09-27T06:43:52.759Z,716.00
2017-09-27T06:44:52.668Z,740.00
2017-09-27T06:45:52.769Z,768.00
2017-09-27T06:46:52.705Z,792.00
2017-09-27T06:47:52.694Z,816.00
2017-09-27T06:48:52.707Z,844.00
2017-09-27T06:49:52.716Z,876.00
2017-09-27T06:50:52.726Z,908.00
2017-09-27T06:51:52.735Z,944.00
2017-09-27T06:52:52.747Z,980.00
2017-09-27T06:53:52.759Z,992.00
2017-09-27T06:54:52.765Z,984.00
2017-09-27T06:55:52.810Z,968.00
2017-09-27T06:56:52.788Z,952.00
2017-09-27T06:57:52.793Z,936.00
2017-09-27T06:58:52.810Z,920.00
2017-09-27T07:00:04.391Z,908.00
2017-09-27T07:00:52.827Z,900.00
2017-09-27T07:01:52.835Z,896.00
2017-09-27T07:02:53.965Z,896.00
2017-09-27T07:03:52.855Z,912.00
2017-09-27T07:04:52.865Z,928.00
2017-09-27T07:05:52.880Z,944.00
2017-09-27T07:06:53.994Z,944.00
2017-09-27T07:07:52.899Z,944.00
2017-09-27T07:08:52.990Z,940.00
2017-09-27T07:09:52.915Z,932.00
2017-09-27T07:10:52.998Z,932.00
2017-09-27T07:11:52.940Z,932.00
2017-09-27T07:12:53.013Z,932.00
2017-09-27T07:13:52.985Z,936.00
2017-09-27T07:14:53.028Z,940.00
2017-09-27T07:15:52.995Z,944.00
2017-09-27T07:16:53.022Z,952.00
2017-09-27T07:17:53.007Z,960.00
2017-09-27T07:18:53.016Z,968.00
2017-09-27T07:19:53.161Z,972.00
2017-09-27T07:20:53.031Z,976.00
2017-09-27T07:21:53.037Z,984.00
2017-09-27T07:22:53.081Z,1004.00
2017-09-27T07:23:53.057Z,1048.00
2017-09-27T07:24:53.197Z,1096.00
2017-09-27T07:25:53.078Z,1144.00
2017-09-27T07:26:53.209Z,1200.00
2017-09-27T07:27:53.096Z,1252.00
2017-09-27T07:28:53.224Z,1304.00
2017-09-27T07:29:53.117Z,1336.00
2017-09-27T07:30:53.131Z,1336.00
2017-09-27T07:31:53.242Z,1340.00
2017-09-27T07:32:53.157Z,1344.00
2017-09-27T07:33:53.257Z,1364.00
2017-09-27T07:34:53.168Z,1392.00
2017-09-27T07:35:53.270Z,1416.00
2017-09-27T07:36:53.189Z,1444.00
2017-09-27T07:37:53.282Z,1444.00
2017-09-27T07:38:53.210Z,1420.00
2017-09-27T07:39:53.297Z,1392.00
2017-09-27T07:40:53.232Z,1388.00
2017-09-27T07:41:53.310Z,1384.00
2017-09-27T07:42:53.253Z,1380.00
2017-09-27T07:43:53.323Z,1380.00
2017-09-27T07:44:53.271Z,1376.00
2017-09-27T07:45:53.335Z,1388.00
2017-09-27T07:46:53.301Z,1428.00
2017-09-27T07:47:53.351Z,1480.00
2017-09-27T07:48:53.311Z,1508.00
2017-09-27T07:49:53.370Z,1472.00
2017-09-27T07:50:53.329Z,1404.00
2017-09-27T07:51:53.378Z,1344.00
2017-09-27T07:52:53.350Z,1304.00
2017-09-27T07:53:53.495Z,1312.00
2017-09-27T07:54:53.370Z,1332.00
2017-09-27T07:55:53.508Z,1356.00
2017-09-27T07:56:53.394Z,1368.00
2017-09-27T07:57:53.401Z,1356.00
2017-09-27T07:58:53.539Z,1328.00
2017-09-27T07:59:53.417Z,1336.00
2017-09-27T08:00:53.548Z,1372.00
2017-09-27T08:01:53.438Z,1436.00
2017-09-27T08:02:53.556Z,1512.00
2017-09-27T08:03:53.465Z,1572.00
2017-09-27T08:04:53.570Z,1632.00
2017-09-27T08:05:53.476Z,1680.00
2017-09-27T08:06:53.583Z,1688.00
2017-09-27T08:07:53.499Z,1716.00
2017-09-27T08:08:53.598Z,1776.00
2017-09-27T08:09:53.521Z,1828.00
2017-09-27T08:10:53.553Z,1844.00
2017-09-27T08:11:53.618Z,1824.00
2017-09-27T08:12:53.553Z,1800.00
2017-09-27T08:13:53.632Z,1808.00
2017-09-27T08:14:53.568Z,1824.00
2017-09-27T08:15:54.669Z,1820.00
2017-09-27T08:16:53.590Z,1816.00
2017-09-27T08:17:53.657Z,1848.00
2017-09-27T08:18:53.616Z,1920.00
2017-09-27T08:19:53.675Z,1960.00
2017-09-27T08:20:53.629Z,1996.00
2017-09-27T08:21:53.789Z,2044.00
2017-09-27T08:22:53.653Z,2096.00
2017-09-27T08:23:53.802Z,2124.00
2017-09-27T08:24:53.673Z,2116.00
2017-09-27T08:25:53.814Z,2084.00
2017-09-27T08:26:53.693Z,2124.00
2017-09-27T08:27:53.828Z,2068.00
2017-09-27T08:28:53.715Z,2072.00
2017-09-27T08:29:53.841Z,2160.00
2017-09-27T08:30:53.729Z,2184.00
2017-09-27T08:31:53.855Z,2208.00
2017-09-27T08:32:53.749Z,2212.00
2017-09-27T08:33:53.870Z,2196.00
2017-09-27T08:34:53.770Z,2164.00
2017-09-27T08:35:53.883Z,2176.00
2017-09-27T08:36:53.795Z,2196.00
2017-09-27T08:37:53.894Z,2224.00
2017-09-27T08:38:53.817Z,2224.00
2017-09-27T08:39:53.911Z,2240.00
2017-09-27T08:40:53.832Z,2284.00
2017-09-27T08:41:53.922Z,2256.00
2017-09-27T08:42:53.855Z,2220.00
2017-09-27T08:43:53.934Z,2180.00
2017-09-27T08:44:53.876Z,2252.00
2017-09-27T08:45:53.950Z,2216.00
2017-09-27T08:46:53.894Z,2188.00
2017-09-27T08:47:53.962Z,2248.00
2017-09-27T08:48:53.916Z,2280.00
2017-09-27T08:49:54.077Z,2204.00
2017-09-27T08:50:53.936Z,2252.00
2017-09-27T08:51:54.093Z,2264.00
2017-09-27T08:52:53.953Z,2160.00
2017-09-27T08:53:54.105Z,2176.00
2017-09-27T08:54:53.977Z,2196.00
2017-09-27T08:55:54.121Z,2184.00
2017-09-27T08:56:53.998Z,2168.00
2017-09-27T08:57:54.136Z,2140.00
2017-09-27T08:58:54.016Z,2072.00
2017-09-27T08:59:54.028Z,2004.00
2017-09-27T09:00:54.038Z,2068.00
2017-09-27T09:01:55.186Z,2164.00
2017-09-27T09:02:54.055Z,2144.00
2017-09-27T09:03:55.220Z,2132.00
2017-09-27T09:04:54.079Z,2128.00
2017-09-27T09:05:54.247Z,2032.00
2017-09-27T09:06:54.112Z,1988.00
2017-09-27T09:07:55.182Z,1956.00
2017-09-27T09:08:54.121Z,1920.00
2017-09-27T09:09:56.219Z,1904.00
2017-09-27T09:10:54.145Z,1900.00
2017-09-27T09:11:54.193Z,1868.00
2017-09-27T09:12:54.163Z,1828.00
2017-09-27T09:13:54.203Z,1820.00
2017-09-27T09:14:54.201Z,1804.00
2017-09-27T09:15:54.315Z,1792.00
2017-09-27T09:16:54.204Z,1784.00
2017-09-27T09:17:58.937Z,1772.00
2017-09-27T09:18:54.233Z,1792.00
2017-09-27T09:19:54.345Z,1804.00
2017-09-27T09:20:54.248Z,1820.00
2017-09-27T09:21:54.356Z,1832.00
2017-09-27T09:22:54.272Z,1820.00
2017-09-27T09:23:54.369Z,1800.00
2017-09-27T09:24:54.301Z,1780.00
2017-09-27T09:25:54.310Z,1764.00
2017-09-27T09:26:54.391Z,1748.00
2017-09-27T09:27:54.323Z,1708.00
2017-09-27T09:28:54.402Z,1684.00
2017-09-27T09:29:54.355Z,1672.00
2017-09-27T09:30:54.420Z,1660.00
2017-09-27T09:31:54.366Z,1652.00
2017-09-27T09:32:54.431Z,1644.00
2017-09-27T09:33:54.393Z,1632.00
2017-09-27T09:34:54.452Z,1620.00
2017-09-27T09:35:54.411Z,1604.00
2017-09-27T09:36:54.462Z,1596.00
2017-09-27T09:37:54.432Z,1592.00
2017-09-27T09:38:54.442Z,1584.00
2017-09-27T09:39:54.583Z,1584.00
2017-09-27T09:40:54.468Z,1584.00
2017-09-27T09:41:54.597Z,1580.00
2017-09-27T09:42:54.487Z,1576.00
2017-09-27T09:43:54.608Z,1572.00
2017-09-27T09:44:54.514Z,1560.00
2017-09-27T09:45:54.620Z,1556.00
2017-09-27T09:46:54.543Z,1552.00
2017-09-27T09:47:54.636Z,1548.00
2017-09-27T09:48:54.554Z,1552.00
2017-09-27T09:49:54.565Z,1552.00
2017-09-27T09:50:54.652Z,1552.00
2017-09-27T09:51:54.588Z,1556.00
2017-09-27T09:52:54.677Z,1552.00
2017-09-27T09:53:54.614Z,1556.00
2017-09-27T09:54:54.681Z,1556.00
2017-09-27T09:55:54.642Z,1552.00
2017-09-27T09:56:54.644Z,1552.00
2017-09-27T09:57:54.704Z,1548.00
2017-09-27T09:58:54.665Z,1552.00
2017-09-27T09:59:54.817Z,1560.00
2017-09-27T10:00:54.695Z,1556.00
2017-09-27T10:01:54.830Z,1556.00
2017-09-27T10:02:54.709Z,1556.00
2017-09-27T10:03:54.844Z,1548.00
2017-09-27T10:04:54.734Z,1548.00
2017-09-27T10:05:54.859Z,1540.00
2017-09-27T10:06:54.754Z,1528.00
2017-09-27T10:07:55.898Z,1520.00
2017-09-27T10:08:54.775Z,1512.00
2017-09-27T10:09:54.886Z,1504.00
2017-09-27T10:10:55.386Z,1504.00
2017-09-27T10:11:54.906Z,1500.00
2017-09-27T10:12:54.829Z,1496.00
2017-09-27T10:13:54.913Z,1496.00
2017-09-27T10:14:54.850Z,1496.00
2017-09-27T10:15:54.862Z,1492.00
2017-09-27T10:16:54.870Z,1492.00
2017-09-27T10:17:54.941Z,1488.00
2017-09-27T10:18:54.891Z,1488.00
2017-09-27T10:19:54.901Z,1488.00
2017-09-27T10:20:54.959Z,1480.00
2017-09-27T10:21:54.926Z,1476.00
2017-09-27T10:22:55.078Z,1476.00
2017-09-27T10:23:54.951Z,1476.00
2017-09-27T10:24:55.089Z,1480.00
2017-09-27T10:25:54.970Z,1480.00
2017-09-27T10:26:56.129Z,1484.00
2017-09-27T10:27:54.995Z,1484.00
2017-09-27T10:28:55.119Z,1488.00
2017-09-27T10:29:55.019Z,1492.00
2017-09-27T10:30:55.130Z,1500.00
2017-09-27T10:31:55.045Z,1500.00
2017-09-27T10:32:55.144Z,1500.00
2017-09-27T10:33:55.067Z,1508.00
2017-09-27T10:34:55.156Z,1508.00
2017-09-27T10:35:55.086Z,1504.00
2017-09-27T10:36:55.174Z,1500.00
2017-09-27T10:37:55.110Z,1500.00
2017-09-27T10:38:55.185Z,1500.00
2017-09-27T10:39:55.134Z,1500.00
2017-09-27T10:40:55.198Z,1496.00
2017-09-27T10:41:55.195Z,1496.00
2017-09-27T10:42:55.315Z,1496.00
2017-09-27T10:43:55.181Z,1504.00
2017-09-27T10:44:55.331Z,1500.00
2017-09-27T10:45:55.205Z,1484.00
2017-09-27T10:46:55.341Z,1488.00
2017-09-27T10:47:55.227Z,1484.00
2017-09-27T10:48:55.355Z,1480.00
2017-09-27T10:49:55.250Z,1476.00
2017-09-27T10:50:55.372Z,1472.00
2017-09-27T10:51:55.276Z,1468.00
2017-09-27T10:52:55.383Z,1464.00
2017-09-27T10:53:55.329Z,1456.00
2017-09-27T10:54:55.399Z,1460.00
2017-09-27T10:55:55.325Z,1456.00
2017-09-27T10:56:55.410Z,1460.00
2017-09-27T10:57:55.345Z,1460.00
2017-09-27T10:58:55.423Z,1468.00
2017-09-27T10:59:55.369Z,1464.00
2017-09-27T11:00:55.538Z,1468.00
2017-09-27T11:01:55.393Z,1468.00
2017-09-27T11:02:55.553Z,1464.00
2017-09-27T11:03:55.419Z,1464.00
2017-09-27T11:04:55.571Z,1468.00
2017-09-27T11:05:55.443Z,1464.00
2017-09-27T11:06:55.691Z,1460.00
2017-09-27T11:07:55.463Z,1452.00
2017-09-27T11:08:55.592Z,1456.00
2017-09-27T11:09:55.488Z,1452.00
2017-09-27T11:10:55.496Z,1456.00
2017-09-27T11:11:55.617Z,1456.00
2017-09-27T11:12:55.525Z,1456.00
2017-09-27T11:13:55.638Z,1452.00
2017-09-27T11:14:55.546Z,1456.00
2017-09-27T11:15:55.664Z,1464.00
2017-09-27T11:16:55.583Z,1468.00
2017-09-27T11:17:55.659Z,1464.00
2017-09-27T11:18:55.595Z,1472.00
2017-09-27T11:19:55.775Z,1484.00
2017-09-27T11:20:55.617Z,1492.00
2017-09-27T11:21:55.630Z,1500.00
2017-09-27T11:22:55.644Z,1512.00
2017-09-27T11:23:55.800Z,1500.00
2017-09-27T11:24:55.670Z,1492.00
2017-09-27T11:25:55.816Z,1492.00
2017-09-27T11:26:55.695Z,1500.00
2017-09-27T11:27:56.880Z,1480.00
2017-09-27T11:28:55.715Z,1472.00
2017-09-27T11:29:55.841Z,1464.00
2017-09-27T11:30:55.746Z,1440.00
2017-09-27T11:31:55.794Z,1456.00
2017-09-27T11:32:55.764Z,1452.00
2017-09-27T11:33:55.808Z,1444.00
2017-09-27T11:34:55.789Z,1452.00
2017-09-27T11:35:55.821Z,1484.00
2017-09-27T11:36:55.812Z,1504.00
2017-09-27T11:37:55.937Z,1528.00
2017-09-27T11:38:55.837Z,1400.00
2017-09-27T11:39:55.948Z,1376.00
2017-09-27T11:40:55.861Z,1384.00
2017-09-27T11:41:55.882Z,1396.00
2017-09-27T11:42:55.887Z,1400.00
2017-09-27T11:43:55.989Z,1340.00
2017-09-27T11:44:55.915Z,1352.00
2017-09-27T11:45:55.923Z,1464.00
2017-09-27T11:46:55.993Z,1500.00
2017-09-27T11:47:55.950Z,1520.00
2017-09-27T11:48:56.008Z,1508.00
2017-09-27T11:49:55.976Z,1592.00
2017-09-27T11:50:55.987Z,1820.00
2017-09-27T11:51:55.995Z,1992.00
2017-09-27T11:52:56.033Z,2012.00
2017-09-27T11:53:56.022Z,2084.00
2017-09-27T11:54:56.149Z,2276.00
2017-09-27T11:55:56.049Z,2560.00
2017-09-27T11:56:56.160Z,2696.00
2017-09-27T11:57:56.072Z,2424.00
2017-09-27T11:58:57.197Z,2136.00
2017-09-27T11:59:56.924Z,1944.00
2017-09-27T12:00:56.110Z,1988.00
2017-09-27T12:01:56.121Z,2024.00
2017-09-27T12:02:56.200Z,2124.00
2017-09-27T12:03:56.150Z,2216.00
2017-09-27T12:04:56.212Z,2248.00
2017-09-27T12:05:56.170Z,2192.00
2017-09-27T12:06:56.230Z,2196.00
2017-09-27T12:07:56.201Z,2344.00
2017-09-27T12:08:56.237Z,2352.00
2017-09-27T12:09:56.219Z,2172.00
2017-09-27T12:10:56.236Z,2176.00
2017-09-27T12:11:56.249Z,2040.00
2017-09-27T12:12:56.368Z,1924.00
2017-09-27T12:13:56.272Z,1852.00
2017-09-27T12:14:56.283Z,1844.00
2017-09-27T12:15:56.357Z,1952.00
2017-09-27T12:16:56.309Z,2196.00
2017-09-27T12:17:56.472Z,2300.00
2017-09-27T12:18:56.333Z,2236.00
2017-09-27T12:19:56.488Z,2192.00
2017-09-27T12:20:56.362Z,2076.00
2017-09-27T12:21:56.499Z,1800.00
2017-09-27T12:22:56.386Z,1616.00
2017-09-27T12:23:56.511Z,1528.00
2017-09-27T12:24:56.415Z,1420.00
2017-09-27T12:25:56.526Z,1444.00
2017-09-27T12:26:56.435Z,1556.00
2017-09-27T12:27:56.541Z,1576.00
2017-09-27T12:28:56.462Z,1580.00
2017-09-27T12:29:56.656Z,1588.00
2017-09-27T12:30:56.488Z,1588.00
2017-09-27T12:31:56.565Z,1592.00
2017-09-27T12:32:56.513Z,1536.00
2017-09-27T12:33:56.681Z,1676.00
2017-09-27T12:34:56.535Z,1804.00
2017-09-27T12:35:56.615Z,2060.00
2017-09-27T12:36:56.560Z,2196.00
2017-09-27T12:37:56.629Z,2176.00
2017-09-27T12:38:56.587Z,2132.00
2017-09-27T12:39:56.643Z,2128.00